sensor_id;sensor_type;location;lat;lon;timestamp;P1;durP1;ratioP1;P2;durP2;ratioP2
18999;SDS011;9633;50.980;13.850;2023-12-20T00:00:35;3.57;;;2.30;;
18999;SDS011;9633;50.980;13.850;2023-12-20T00:02:08;2.63;;;2.10;;
18999;SDS011;9633;50.980;13.850;2023-12-20T00:03:42;3.33;;;2.40;;
18999;SDS011;9633;50.980;13.850;2023-12-20T00:05:14;2.57;;;2.30;;
18999;SDS011;9633;50.980;13.850;2023-12-20T00:06:47;2.50;;;2.00;;
18999;SDS011;9633;50.980;13.850;2023-12-20T00:08:19;3.10;;;2.50;;
18999;SDS011;9633;50.980;13.850;2023-12-20T00:09:53;3.33;;;2.63;;
18999;SDS011;9633;50.980;13.850;2023-12-20T00:11:25;2.90;;;2.20;;
18999;SDS011;9633;50.980;13.850;2023-12-20T00:12:58;3.47;;;2.33;;
18999;SDS011;9633;50.980;13.850;2023-12-20T00:14:30;3.07;;;2.43;;
18999;SDS011;9633;50.980;13.850;2023-12-20T00:16:05;3.00;;;2.57;;
18999;SDS011;9633;50.980;13.850;2023-12-20T00:17:37;2.70;;;2.30;;
18999;SDS011;9633;50.980;13.850;2023-12-20T00:19:11;3.33;;;2.40;;
18999;SDS011;9633;50.980;13.850;2023-12-20T00:20:43;3.60;;;2.50;;
18999;SDS011;9633;50.980;13.850;2023-12-20T00:22:17;2.83;;;2.53;;
18999;SDS011;9633;50.980;13.850;2023-12-20T00:23:49;3.77;;;2.70;;
18999;SDS011;9633;50.980;13.850;2023-12-20T00:25:22;3.47;;;2.80;;
18999;SDS011;9633;50.980;13.850;2023-12-20T00:26:54;3.17;;;2.80;;
18999;SDS011;9633;50.980;13.850;2023-12-20T00:28:27;3.80;;;2.67;;
18999;SDS011;9633;50.980;13.850;2023-12-20T00:30:00;3.57;;;2.77;;
18999;SDS011;9633;50.980;13.850;2023-12-20T00:31:35;3.37;;;2.33;;
18999;SDS011;9633;50.980;13.850;2023-12-20T00:33:07;3.67;;;2.53;;
18999;SDS011;9633;50.980;13.850;2023-12-20T00:34:40;3.30;;;2.60;;
18999;SDS011;9633;50.980;13.850;2023-12-20T00:36:13;3.17;;;2.27;;
18999;SDS011;9633;50.980;13.850;2023-12-20T00:37:46;3.67;;;2.77;;
18999;SDS011;9633;50.980;13.850;2023-12-20T00:39:18;3.20;;;2.30;;
18999;SDS011;9633;50.980;13.850;2023-12-20T00:40:52;2.50;;;2.30;;
18999;SDS011;9633;50.980;13.850;2023-12-20T00:42:24;3.23;;;2.70;;
18999;SDS011;9633;50.980;13.850;2023-12-20T00:43:57;3.20;;;2.50;;
18999;SDS011;9633;50.980;13.850;2023-12-20T00:45:30;2.97;;;2.30;;
18999;SDS011;9633;50.980;13.850;2023-12-20T00:47:04;3.30;;;2.60;;
18999;SDS011;9633;50.980;13.850;2023-12-20T00:48:37;2.53;;;2.13;;
18999;SDS011;9633;50.980;13.850;2023-12-20T00:50:09;3.70;;;2.33;;
18999;SDS011;9633;50.980;13.850;2023-12-20T00:51:42;2.93;;;2.13;;
18999;SDS011;9633;50.980;13.850;2023-12-20T00:53:14;2.87;;;2.03;;
18999;SDS011;9633;50.980;13.850;2023-12-20T00:54:48;3.10;;;2.10;;
18999;SDS011;9633;50.980;13.850;2023-12-20T00:56:20;2.80;;;2.30;;
18999;SDS011;9633;50.980;13.850;2023-12-20T00:57:53;2.13;;;1.90;;
18999;SDS011;9633;50.980;13.850;2023-12-20T00:59:26;2.73;;;2.30;;
18999;SDS011;9633;50.980;13.850;2023-12-20T01:00:59;2.63;;;2.20;;
18999;SDS011;9633;50.980;13.850;2023-12-20T01:02:33;2.73;;;2.20;;
18999;SDS011;9633;50.980;13.850;2023-12-20T01:04:06;2.60;;;2.10;;
18999;SDS011;9633;50.980;13.850;2023-12-20T01:05:38;2.67;;;1.90;;
18999;SDS011;9633;50.980;13.850;2023-12-20T01:07:11;2.20;;;1.77;;
18999;SDS011;9633;50.980;13.850;2023-12-20T01:08:44;2.47;;;2.07;;
18999;SDS011;9633;50.980;13.850;2023-12-20T01:10:17;2.20;;;1.80;;
18999;SDS011;9633;50.980;13.850;2023-12-20T01:11:50;1.93;;;1.70;;
18999;SDS011;9633;50.980;13.850;2023-12-20T01:13:23;2.20;;;1.80;;
18999;SDS011;9633;50.980;13.850;2023-12-20T01:14:55;2.67;;;1.90;;
18999;SDS011;9633;50.980;13.850;2023-12-20T01:16:29;3.33;;;1.83;;
18999;SDS011;9633;50.980;13.850;2023-12-20T01:18:03;1.80;;;1.60;;
18999;SDS011;9633;50.980;13.850;2023-12-20T01:19:37;3.10;;;1.80;;
18999;SDS011;9633;50.980;13.850;2023-12-20T01:21:10;2.07;;;1.87;;
18999;SDS011;9633;50.980;13.850;2023-12-20T01:22:43;3.00;;;1.90;;
18999;SDS011;9633;50.980;13.850;2023-12-20T01:24:17;2.07;;;1.67;;
18999;SDS011;9633;50.980;13.850;2023-12-20T01:25:50;2.17;;;1.80;;
18999;SDS011;9633;50.980;13.850;2023-12-20T01:27:22;1.83;;;1.60;;
18999;SDS011;9633;50.980;13.850;2023-12-20T01:28:56;1.57;;;1.40;;
18999;SDS011;9633;50.980;13.850;2023-12-20T01:30:28;1.80;;;1.60;;
18999;SDS011;9633;50.980;13.850;2023-12-20T01:32:01;1.97;;;1.70;;
18999;SDS011;9633;50.980;13.850;2023-12-20T01:33:35;1.67;;;1.57;;
18999;SDS011;9633;50.980;13.850;2023-12-20T01:35:08;1.73;;;1.50;;
18999;SDS011;9633;50.980;13.850;2023-12-20T01:36:41;4.00;;;1.67;;
18999;SDS011;9633;50.980;13.850;2023-12-20T01:38:16;2.27;;;1.70;;
18999;SDS011;9633;50.980;13.850;2023-12-20T01:39:50;1.80;;;1.63;;
18999;SDS011;9633;50.980;13.850;2023-12-20T01:41:23;1.90;;;1.57;;
18999;SDS011;9633;50.980;13.850;2023-12-20T01:42:59;1.37;;;1.27;;
18999;SDS011;9633;50.980;13.850;2023-12-20T01:44:32;1.97;;;1.47;;
18999;SDS011;9633;50.980;13.850;2023-12-20T01:46:05;1.40;;;1.30;;
18999;SDS011;9633;50.980;13.850;2023-12-20T01:47:38;1.70;;;1.37;;
18999;SDS011;9633;50.980;13.850;2023-12-20T01:49:12;1.93;;;1.50;;
18999;SDS011;9633;50.980;13.850;2023-12-20T01:50:45;1.57;;;1.20;;
18999;SDS011;9633;50.980;13.850;2023-12-20T01:52:18;2.07;;;1.70;;
18999;SDS011;9633;50.980;13.850;2023-12-20T01:53:52;1.50;;;1.40;;
18999;SDS011;9633;50.980;13.850;2023-12-20T01:55:27;1.90;;;1.40;;
18999;SDS011;9633;50.980;13.850;2023-12-20T01:57:04;1.30;;;1.20;;
18999;SDS011;9633;50.980;13.850;2023-12-20T01:58:37;1.40;;;1.30;;
18999;SDS011;9633;50.980;13.850;2023-12-20T02:00:15;1.50;;;1.40;;
18999;SDS011;9633;50.980;13.850;2023-12-20T02:01:48;1.97;;;1.10;;
18999;SDS011;9633;50.980;13.850;2023-12-20T02:03:21;3.17;;;1.20;;
18999;SDS011;9633;50.980;13.850;2023-12-20T02:04:55;1.67;;;1.40;;
18999;SDS011;9633;50.980;13.850;2023-12-20T02:06:29;1.40;;;1.30;;
18999;SDS011;9633;50.980;13.850;2023-12-20T02:08:03;1.40;;;1.20;;
18999;SDS011;9633;50.980;13.850;2023-12-20T02:09:37;1.17;;;1.07;;
18999;SDS011;9633;50.980;13.850;2023-12-20T02:11:12;1.57;;;1.20;;
18999;SDS011;9633;50.980;13.850;2023-12-20T02:12:44;1.40;;;1.20;;
18999;SDS011;9633;50.980;13.850;2023-12-20T02:14:17;1.30;;;1.20;;
18999;SDS011;9633;50.980;13.850;2023-12-20T02:15:49;1.43;;;1.23;;
18999;SDS011;9633;50.980;13.850;2023-12-20T02:17:23;1.40;;;1.17;;
18999;SDS011;9633;50.980;13.850;2023-12-20T02:18:55;1.20;;;1.10;;
18999;SDS011;9633;50.980;13.850;2023-12-20T02:20:30;1.90;;;1.30;;
18999;SDS011;9633;50.980;13.850;2023-12-20T02:22:07;1.23;;;1.13;;
18999;SDS011;9633;50.980;13.850;2023-12-20T02:23:41;1.20;;;1.10;;
18999;SDS011;9633;50.980;13.850;2023-12-20T02:25:13;1.40;;;1.30;;
18999;SDS011;9633;50.980;13.850;2023-12-20T02:26:47;0.90;;;0.90;;
18999;SDS011;9633;50.980;13.850;2023-12-20T02:28:19;1.00;;;1.00;;
18999;SDS011;9633;50.980;13.850;2023-12-20T02:29:54;1.13;;;1.03;;
18999;SDS011;9633;50.980;13.850;2023-12-20T02:31:26;1.20;;;1.10;;
18999;SDS011;9633;50.980;13.850;2023-12-20T02:32:59;1.10;;;1.00;;
18999;SDS011;9633;50.980;13.850;2023-12-20T02:34:35;1.10;;;1.00;;
18999;SDS011;9633;50.980;13.850;2023-12-20T02:36:08;0.93;;;0.80;;
18999;SDS011;9633;50.980;13.850;2023-12-20T02:37:41;0.93;;;0.90;;
18999;SDS011;9633;50.980;13.850;2023-12-20T02:39:15;1.20;;;1.10;;
18999;SDS011;9633;50.980;13.850;2023-12-20T02:40:48;0.80;;;0.80;;
18999;SDS011;9633;50.980;13.850;2023-12-20T02:42:21;1.60;;;0.90;;
18999;SDS011;9633;50.980;13.850;2023-12-20T02:43:53;0.73;;;0.73;;
18999;SDS011;9633;50.980;13.850;2023-12-20T02:45:26;1.27;;;0.83;;
18999;SDS011;9633;50.980;13.850;2023-12-20T02:46:58;1.60;;;0.80;;
18999;SDS011;9633;50.980;13.850;2023-12-20T02:48:31;1.17;;;0.90;;
18999;SDS011;9633;50.980;13.850;2023-12-20T02:50:04;1.07;;;0.97;;
18999;SDS011;9633;50.980;13.850;2023-12-20T02:51:38;1.60;;;0.70;;
18999;SDS011;9633;50.980;13.850;2023-12-20T02:53:11;1.10;;;0.90;;
18999;SDS011;9633;50.980;13.850;2023-12-20T02:54:45;1.00;;;0.90;;
18999;SDS011;9633;50.980;13.850;2023-12-20T02:56:17;0.80;;;0.80;;
18999;SDS011;9633;50.980;13.850;2023-12-20T02:57:50;0.73;;;0.73;;
18999;SDS011;9633;50.980;13.850;2023-12-20T02:59:22;1.00;;;0.90;;
18999;SDS011;9633;50.980;13.850;2023-12-20T03:00:55;0.70;;;0.70;;
18999;SDS011;9633;50.980;13.850;2023-12-20T03:02:29;1.20;;;0.90;;
18999;SDS011;9633;50.980;13.850;2023-12-20T03:04:01;0.87;;;0.70;;
18999;SDS011;9633;50.980;13.850;2023-12-20T03:05:34;0.87;;;0.80;;
18999;SDS011;9633;50.980;13.850;2023-12-20T03:07:06;1.00;;;0.90;;
18999;SDS011;9633;50.980;13.850;2023-12-20T03:08:41;1.00;;;0.90;;
18999;SDS011;9633;50.980;13.850;2023-12-20T03:10:13;1.40;;;1.00;;
18999;SDS011;9633;50.980;13.850;2023-12-20T03:11:57;0.93;;;0.90;;
18999;SDS011;9633;50.980;13.850;2023-12-20T03:13:29;1.13;;;0.70;;
18999;SDS011;9633;50.980;13.850;2023-12-20T03:15:02;0.90;;;0.90;;
18999;SDS011;9633;50.980;13.850;2023-12-20T03:16:35;0.70;;;0.70;;
18999;SDS011;9633;50.980;13.850;2023-12-20T03:18:08;0.70;;;0.60;;
18999;SDS011;9633;50.980;13.850;2023-12-20T03:19:40;0.77;;;0.77;;
18999;SDS011;9633;50.980;13.850;2023-12-20T03:21:13;0.80;;;0.80;;
18999;SDS011;9633;50.980;13.850;2023-12-20T03:22:46;0.70;;;0.70;;
18999;SDS011;9633;50.980;13.850;2023-12-20T03:24:20;0.80;;;0.80;;
18999;SDS011;9633;50.980;13.850;2023-12-20T03:25:54;0.70;;;0.70;;
18999;SDS011;9633;50.980;13.850;2023-12-20T03:27:26;0.90;;;0.90;;
18999;SDS011;9633;50.980;13.850;2023-12-20T03:28:59;0.70;;;0.70;;
18999;SDS011;9633;50.980;13.850;2023-12-20T03:30:31;0.70;;;0.70;;
18999;SDS011;9633;50.980;13.850;2023-12-20T03:32:04;0.80;;;0.80;;
18999;SDS011;9633;50.980;13.850;2023-12-20T03:33:37;1.00;;;0.90;;
18999;SDS011;9633;50.980;13.850;2023-12-20T03:35:10;1.17;;;0.60;;
18999;SDS011;9633;50.980;13.850;2023-12-20T03:36:43;0.77;;;0.70;;
18999;SDS011;9633;50.980;13.850;2023-12-20T03:38:19;1.20;;;0.80;;
18999;SDS011;9633;50.980;13.850;2023-12-20T03:39:54;0.70;;;0.70;;
18999;SDS011;9633;50.980;13.850;2023-12-20T03:41:26;0.93;;;0.83;;
18999;SDS011;9633;50.980;13.850;2023-12-20T03:42:59;0.57;;;0.53;;
18999;SDS011;9633;50.980;13.850;2023-12-20T03:44:31;0.60;;;0.60;;
18999;SDS011;9633;50.980;13.850;2023-12-20T03:46:04;0.70;;;0.70;;
18999;SDS011;9633;50.980;13.850;2023-12-20T03:47:38;1.53;;;0.77;;
18999;SDS011;9633;50.980;13.850;2023-12-20T03:49:10;0.57;;;0.57;;
18999;SDS011;9633;50.980;13.850;2023-12-20T03:50:44;0.53;;;0.50;;
18999;SDS011;9633;50.980;13.850;2023-12-20T03:52:16;1.80;;;0.80;;
18999;SDS011;9633;50.980;13.850;2023-12-20T03:53:49;0.60;;;0.60;;
18999;SDS011;9633;50.980;13.850;2023-12-20T03:55:23;0.50;;;0.50;;
18999;SDS011;9633;50.980;13.850;2023-12-20T03:56:56;0.70;;;0.70;;
18999;SDS011;9633;50.980;13.850;2023-12-20T03:58:29;0.50;;;0.50;;
18999;SDS011;9633;50.980;13.850;2023-12-20T04:00:02;0.67;;;0.60;;
18999;SDS011;9633;50.980;13.850;2023-12-20T04:01:42;0.60;;;0.60;;
18999;SDS011;9633;50.980;13.850;2023-12-20T04:03:16;0.70;;;0.70;;
18999;SDS011;9633;50.980;13.850;2023-12-20T04:04:49;0.57;;;0.57;;
18999;SDS011;9633;50.980;13.850;2023-12-20T04:06:21;0.80;;;0.60;;
18999;SDS011;9633;50.980;13.850;2023-12-20T04:07:54;0.60;;;0.60;;
18999;SDS011;9633;50.980;13.850;2023-12-20T04:09:27;1.90;;;0.50;;
18999;SDS011;9633;50.980;13.850;2023-12-20T04:11:02;0.60;;;0.60;;
18999;SDS011;9633;50.980;13.850;2023-12-20T04:12:34;0.63;;;0.63;;
18999;SDS011;9633;50.980;13.850;2023-12-20T04:14:07;0.60;;;0.60;;
18999;SDS011;9633;50.980;13.850;2023-12-20T04:15:41;0.57;;;0.57;;
18999;SDS011;9633;50.980;13.850;2023-12-20T04:17:15;0.70;;;0.60;;
18999;SDS011;9633;50.980;13.850;2023-12-20T04:18:47;0.70;;;0.70;;
18999;SDS011;9633;50.980;13.850;2023-12-20T04:20:20;0.77;;;0.60;;
18999;SDS011;9633;50.980;13.850;2023-12-20T04:21:53;1.03;;;0.67;;
18999;SDS011;9633;50.980;13.850;2023-12-20T04:23:26;0.87;;;0.63;;
18999;SDS011;9633;50.980;13.850;2023-12-20T04:24:59;0.50;;;0.50;;
18999;SDS011;9633;50.980;13.850;2023-12-20T04:26:32;0.67;;;0.60;;
18999;SDS011;9633;50.980;13.850;2023-12-20T04:28:06;0.50;;;0.50;;
18999;SDS011;9633;50.980;13.850;2023-12-20T04:29:38;0.50;;;0.50;;
18999;SDS011;9633;50.980;13.850;2023-12-20T04:31:11;0.60;;;0.60;;
18999;SDS011;9633;50.980;13.850;2023-12-20T04:32:43;0.63;;;0.63;;
18999;SDS011;9633;50.980;13.850;2023-12-20T04:34:17;0.83;;;0.50;;
18999;SDS011;9633;50.980;13.850;2023-12-20T04:35:50;0.60;;;0.60;;
18999;SDS011;9633;50.980;13.850;2023-12-20T04:37:22;1.07;;;0.63;;
18999;SDS011;9633;50.980;13.850;2023-12-20T04:38:56;0.57;;;0.57;;
18999;SDS011;9633;50.980;13.850;2023-12-20T04:40:31;0.70;;;0.70;;
18999;SDS011;9633;50.980;13.850;2023-12-20T04:42:05;0.87;;;0.60;;
18999;SDS011;9633;50.980;13.850;2023-12-20T04:43:38;0.77;;;0.60;;
18999;SDS011;9633;50.980;13.850;2023-12-20T04:45:10;0.60;;;0.60;;
18999;SDS011;9633;50.980;13.850;2023-12-20T04:46:45;0.50;;;0.50;;
18999;SDS011;9633;50.980;13.850;2023-12-20T04:48:17;0.93;;;0.50;;
18999;SDS011;9633;50.980;13.850;2023-12-20T04:49:50;0.73;;;0.70;;
18999;SDS011;9633;50.980;13.850;2023-12-20T04:51:22;0.70;;;0.57;;
18999;SDS011;9633;50.980;13.850;2023-12-20T04:52:56;0.87;;;0.70;;
18999;SDS011;9633;50.980;13.850;2023-12-20T04:54:28;1.77;;;0.60;;
18999;SDS011;9633;50.980;13.850;2023-12-20T04:56:01;0.70;;;0.70;;
18999;SDS011;9633;50.980;13.850;2023-12-20T04:57:35;0.80;;;0.80;;
18999;SDS011;9633;50.980;13.850;2023-12-20T04:59:09;0.70;;;0.70;;
18999;SDS011;9633;50.980;13.850;2023-12-20T05:00:42;1.40;;;0.70;;
18999;SDS011;9633;50.980;13.850;2023-12-20T05:02:15;0.53;;;0.53;;
18999;SDS011;9633;50.980;13.850;2023-12-20T05:03:48;0.70;;;0.60;;
18999;SDS011;9633;50.980;13.850;2023-12-20T05:05:26;0.80;;;0.57;;
18999;SDS011;9633;50.980;13.850;2023-12-20T05:06:58;1.00;;;0.80;;
18999;SDS011;9633;50.980;13.850;2023-12-20T05:08:32;0.70;;;0.70;;
18999;SDS011;9633;50.980;13.850;2023-12-20T05:10:04;0.77;;;0.77;;
18999;SDS011;9633;50.980;13.850;2023-12-20T05:11:39;0.50;;;0.50;;
18999;SDS011;9633;50.980;13.850;2023-12-20T05:13:13;0.67;;;0.67;;
18999;SDS011;9633;50.980;13.850;2023-12-20T05:14:47;0.70;;;0.70;;
18999;SDS011;9633;50.980;13.850;2023-12-20T05:16:19;1.33;;;0.80;;
18999;SDS011;9633;50.980;13.850;2023-12-20T05:17:52;0.83;;;0.70;;
18999;SDS011;9633;50.980;13.850;2023-12-20T05:19:24;0.87;;;0.70;;
18999;SDS011;9633;50.980;13.850;2023-12-20T05:20:58;0.77;;;0.70;;
18999;SDS011;9633;50.980;13.850;2023-12-20T05:22:30;0.80;;;0.80;;
18999;SDS011;9633;50.980;13.850;2023-12-20T05:24:03;0.67;;;0.60;;
18999;SDS011;9633;50.980;13.850;2023-12-20T05:25:36;1.40;;;0.77;;
18999;SDS011;9633;50.980;13.850;2023-12-20T05:27:09;0.60;;;0.60;;
18999;SDS011;9633;50.980;13.850;2023-12-20T05:28:44;1.13;;;0.70;;
18999;SDS011;9633;50.980;13.850;2023-12-20T05:30:17;0.93;;;0.80;;
18999;SDS011;9633;50.980;13.850;2023-12-20T05:31:49;0.70;;;0.50;;
18999;SDS011;9633;50.980;13.850;2023-12-20T05:33:23;0.77;;;0.70;;
18999;SDS011;9633;50.980;13.850;2023-12-20T05:34:56;1.43;;;0.60;;
18999;SDS011;9633;50.980;13.850;2023-12-20T05:36:29;0.90;;;0.80;;
18999;SDS011;9633;50.980;13.850;2023-12-20T05:38:02;0.70;;;0.70;;
18999;SDS011;9633;50.980;13.850;2023-12-20T05:39:35;0.60;;;0.60;;
18999;SDS011;9633;50.980;13.850;2023-12-20T05:41:07;0.70;;;0.70;;
18999;SDS011;9633;50.980;13.850;2023-12-20T05:42:41;0.70;;;0.70;;
18999;SDS011;9633;50.980;13.850;2023-12-20T05:44:14;0.73;;;0.67;;
18999;SDS011;9633;50.980;13.850;2023-12-20T05:45:47;0.63;;;0.63;;
18999;SDS011;9633;50.980;13.850;2023-12-20T05:47:20;0.50;;;0.50;;
18999;SDS011;9633;50.980;13.850;2023-12-20T05:48:53;0.67;;;0.57;;
18999;SDS011;9633;50.980;13.850;2023-12-20T05:50:25;1.57;;;0.50;;
18999;SDS011;9633;50.980;13.850;2023-12-20T05:51:58;0.53;;;0.53;;
18999;SDS011;9633;50.980;13.850;2023-12-20T05:53:30;0.43;;;0.43;;
18999;SDS011;9633;50.980;13.850;2023-12-20T05:55:04;0.50;;;0.50;;
18999;SDS011;9633;50.980;13.850;2023-12-20T05:56:36;0.43;;;0.43;;
18999;SDS011;9633;50.980;13.850;2023-12-20T05:58:10;0.50;;;0.40;;
18999;SDS011;9633;50.980;13.850;2023-12-20T05:59:43;0.43;;;0.43;;
18999;SDS011;9633;50.980;13.850;2023-12-20T06:01:16;1.27;;;0.53;;
18999;SDS011;9633;50.980;13.850;2023-12-20T06:02:49;0.73;;;0.50;;
18999;SDS011;9633;50.980;13.850;2023-12-20T06:04:22;0.40;;;0.40;;
18999;SDS011;9633;50.980;13.850;2023-12-20T06:05:54;1.07;;;0.50;;
18999;SDS011;9633;50.980;13.850;2023-12-20T06:07:44;0.60;;;0.50;;
18999;SDS011;9633;50.980;13.850;2023-12-20T06:09:20;0.50;;;0.40;;
18999;SDS011;9633;50.980;13.850;2023-12-20T06:10:52;0.53;;;0.40;;
18999;SDS011;9633;50.980;13.850;2023-12-20T06:12:25;0.50;;;0.50;;
18999;SDS011;9633;50.980;13.850;2023-12-20T06:13:58;0.70;;;0.60;;
18999;SDS011;9633;50.980;13.850;2023-12-20T06:15:33;0.60;;;0.60;;
18999;SDS011;9633;50.980;13.850;2023-12-20T06:17:05;1.00;;;0.50;;
18999;SDS011;9633;50.980;13.850;2023-12-20T06:18:38;0.40;;;0.40;;
18999;SDS011;9633;50.980;13.850;2023-12-20T06:20:11;0.63;;;0.63;;
18999;SDS011;9633;50.980;13.850;2023-12-20T06:21:45;2.40;;;0.60;;
18999;SDS011;9633;50.980;13.850;2023-12-20T06:23:18;0.60;;;0.50;;
18999;SDS011;9633;50.980;13.850;2023-12-20T06:24:50;0.60;;;0.50;;
18999;SDS011;9633;50.980;13.850;2023-12-20T06:26:23;0.60;;;0.60;;
18999;SDS011;9633;50.980;13.850;2023-12-20T06:27:55;1.30;;;0.50;;
18999;SDS011;9633;50.980;13.850;2023-12-20T06:29:29;0.90;;;0.77;;
18999;SDS011;9633;50.980;13.850;2023-12-20T06:31:04;0.60;;;0.60;;
18999;SDS011;9633;50.980;13.850;2023-12-20T06:32:37;0.80;;;0.80;;
18999;SDS011;9633;50.980;13.850;2023-12-20T06:34:11;0.77;;;0.77;;
18999;SDS011;9633;50.980;13.850;2023-12-20T06:35:44;0.70;;;0.70;;
18999;SDS011;9633;50.980;13.850;2023-12-20T06:37:16;1.83;;;0.93;;
18999;SDS011;9633;50.980;13.850;2023-12-20T06:38:50;1.00;;;0.90;;
18999;SDS011;9633;50.980;13.850;2023-12-20T06:40:22;1.47;;;1.20;;
18999;SDS011;9633;50.980;13.850;2023-12-20T06:41:55;1.30;;;1.20;;
18999;SDS011;9633;50.980;13.850;2023-12-20T06:43:27;1.50;;;1.13;;
18999;SDS011;9633;50.980;13.850;2023-12-20T06:45:19;1.30;;;1.20;;
18999;SDS011;9633;50.980;13.850;2023-12-20T06:46:53;2.43;;;1.60;;
18999;SDS011;9633;50.980;13.850;2023-12-20T06:48:26;2.80;;;1.50;;
18999;SDS011;9633;50.980;13.850;2023-12-20T06:49:59;1.87;;;1.50;;
18999;SDS011;9633;50.980;13.850;2023-12-20T06:51:32;1.33;;;1.23;;
18999;SDS011;9633;50.980;13.850;2023-12-20T06:53:05;1.30;;;1.20;;
18999;SDS011;9633;50.980;13.850;2023-12-20T06:54:39;1.60;;;1.50;;
18999;SDS011;9633;50.980;13.850;2023-12-20T06:56:11;3.13;;;1.30;;
18999;SDS011;9633;50.980;13.850;2023-12-20T06:57:49;1.03;;;1.00;;
18999;SDS011;9633;50.980;13.850;2023-12-20T06:59:22;3.37;;;1.43;;
18999;SDS011;9633;50.980;13.850;2023-12-20T07:00:55;1.50;;;1.40;;
18999;SDS011;9633;50.980;13.850;2023-12-20T07:02:28;1.80;;;1.50;;
18999;SDS011;9633;50.980;13.850;2023-12-20T07:04:03;2.80;;;1.33;;
18999;SDS011;9633;50.980;13.850;2023-12-20T07:05:35;1.87;;;1.70;;
18999;SDS011;9633;50.980;13.850;2023-12-20T07:07:08;1.30;;;1.20;;
18999;SDS011;9633;50.980;13.850;2023-12-20T07:08:41;2.17;;;1.53;;
18999;SDS011;9633;50.980;13.850;2023-12-20T07:10:14;1.87;;;1.67;;
18999;SDS011;9633;50.980;13.850;2023-12-20T07:11:47;1.50;;;1.40;;
18999;SDS011;9633;50.980;13.850;2023-12-20T07:13:20;1.90;;;1.70;;
18999;SDS011;9633;50.980;13.850;2023-12-20T07:14:53;2.13;;;1.90;;
18999;SDS011;9633;50.980;13.850;2023-12-20T07:16:27;2.23;;;2.03;;
18999;SDS011;9633;50.980;13.850;2023-12-20T07:18:01;2.50;;;2.00;;
18999;SDS011;9633;50.980;13.850;2023-12-20T07:19:34;2.00;;;1.80;;
18999;SDS011;9633;50.980;13.850;2023-12-20T07:21:06;2.37;;;2.17;;
18999;SDS011;9633;50.980;13.850;2023-12-20T07:22:40;1.90;;;1.77;;
18999;SDS011;9633;50.980;13.850;2023-12-20T07:24:13;1.80;;;1.70;;
18999;SDS011;9633;50.980;13.850;2023-12-20T07:25:46;2.00;;;1.50;;
18999;SDS011;9633;50.980;13.850;2023-12-20T07:27:19;2.00;;;1.90;;
18999;SDS011;9633;50.980;13.850;2023-12-20T07:28:52;2.10;;;1.90;;
18999;SDS011;9633;50.980;13.850;2023-12-20T07:30:24;2.53;;;2.33;;
18999;SDS011;9633;50.980;13.850;2023-12-20T07:31:57;2.47;;;2.27;;
18999;SDS011;9633;50.980;13.850;2023-12-20T07:33:31;2.40;;;2.20;;
18999;SDS011;9633;50.980;13.850;2023-12-20T07:35:10;2.67;;;2.30;;
18999;SDS011;9633;50.980;13.850;2023-12-20T07:36:43;2.30;;;2.10;;
18999;SDS011;9633;50.980;13.850;2023-12-20T07:38:16;2.70;;;2.50;;
18999;SDS011;9633;50.980;13.850;2023-12-20T07:39:49;2.37;;;2.17;;
18999;SDS011;9633;50.980;13.850;2023-12-20T07:41:22;3.57;;;2.63;;
18999;SDS011;9633;50.980;13.850;2023-12-20T07:42:55;2.73;;;2.53;;
18999;SDS011;9633;50.980;13.850;2023-12-20T07:44:29;2.60;;;2.40;;
18999;SDS011;9633;50.980;13.850;2023-12-20T07:46:04;3.40;;;3.10;;
18999;SDS011;9633;50.980;13.850;2023-12-20T07:47:38;3.23;;;2.37;;
18999;SDS011;9633;50.980;13.850;2023-12-20T07:49:13;3.20;;;2.37;;
18999;SDS011;9633;50.980;13.850;2023-12-20T07:50:46;3.33;;;2.70;;
18999;SDS011;9633;50.980;13.850;2023-12-20T07:52:19;3.50;;;2.47;;
18999;SDS011;9633;50.980;13.850;2023-12-20T07:53:53;2.73;;;2.53;;
18999;SDS011;9633;50.980;13.850;2023-12-20T07:55:26;2.40;;;2.20;;
18999;SDS011;9633;50.980;13.850;2023-12-20T07:56:59;2.80;;;2.53;;
18999;SDS011;9633;50.980;13.850;2023-12-20T07:58:32;2.70;;;2.50;;
18999;SDS011;9633;50.980;13.850;2023-12-20T08:00:22;2.47;;;2.27;;
18999;SDS011;9633;50.980;13.850;2023-12-20T08:01:54;3.53;;;2.50;;
18999;SDS011;9633;50.980;13.850;2023-12-20T08:03:28;2.60;;;2.20;;
18999;SDS011;9633;50.980;13.850;2023-12-20T08:05:01;2.40;;;2.20;;
18999;SDS011;9633;50.980;13.850;2023-12-20T08:06:35;3.87;;;2.30;;
18999;SDS011;9633;50.980;13.850;2023-12-20T08:08:07;4.53;;;2.70;;
18999;SDS011;9633;50.980;13.850;2023-12-20T08:09:40;2.30;;;2.10;;
18999;SDS011;9633;50.980;13.850;2023-12-20T08:11:15;2.73;;;2.33;;
18999;SDS011;9633;50.980;13.850;2023-12-20T08:12:48;3.83;;;2.13;;
18999;SDS011;9633;50.980;13.850;2023-12-20T08:14:22;3.73;;;1.93;;
18999;SDS011;9633;50.980;13.850;2023-12-20T08:15:54;2.40;;;1.80;;
18999;SDS011;9633;50.980;13.850;2023-12-20T08:17:27;2.67;;;1.63;;
18999;SDS011;9633;50.980;13.850;2023-12-20T08:19:00;2.43;;;1.70;;
18999;SDS011;9633;50.980;13.850;2023-12-20T08:20:35;2.60;;;1.80;;
18999;SDS011;9633;50.980;13.850;2023-12-20T08:22:11;2.33;;;1.60;;
18999;SDS011;9633;50.980;13.850;2023-12-20T08:23:45;1.93;;;1.50;;
18999;SDS011;9633;50.980;13.850;2023-12-20T08:25:19;2.93;;;1.60;;
18999;SDS011;9633;50.980;13.850;2023-12-20T08:26:52;2.60;;;1.40;;
18999;SDS011;9633;50.980;13.850;2023-12-20T08:28:24;1.77;;;1.40;;
18999;SDS011;9633;50.980;13.850;2023-12-20T08:29:58;3.27;;;1.70;;
18999;SDS011;9633;50.980;13.850;2023-12-20T08:31:30;2.80;;;1.43;;
18999;SDS011;9633;50.980;13.850;2023-12-20T08:33:04;4.40;;;1.53;;
18999;SDS011;9633;50.980;13.850;2023-12-20T08:34:39;2.00;;;1.60;;
18999;SDS011;9633;50.980;13.850;2023-12-20T08:36:14;2.57;;;1.33;;
18999;SDS011;9633;50.980;13.850;2023-12-20T08:37:46;2.30;;;1.70;;
18999;SDS011;9633;50.980;13.850;2023-12-20T08:39:19;2.53;;;1.60;;
18999;SDS011;9633;50.980;13.850;2023-12-20T08:40:53;3.63;;;1.40;;
18999;SDS011;9633;50.980;13.850;2023-12-20T08:42:25;2.70;;;1.50;;
18999;SDS011;9633;50.980;13.850;2023-12-20T08:44:02;2.73;;;1.70;;
18999;SDS011;9633;50.980;13.850;2023-12-20T08:45:35;2.37;;;1.50;;
18999;SDS011;9633;50.980;13.850;2023-12-20T08:47:08;2.00;;;1.30;;
18999;SDS011;9633;50.980;13.850;2023-12-20T08:48:44;2.23;;;1.20;;
18999;SDS011;9633;50.980;13.850;2023-12-20T08:50:18;1.80;;;1.30;;
18999;SDS011;9633;50.980;13.850;2023-12-20T08:51:52;2.67;;;1.30;;
18999;SDS011;9633;50.980;13.850;2023-12-20T08:53:25;6.00;;;1.50;;
18999;SDS011;9633;50.980;13.850;2023-12-20T08:54:58;5.63;;;1.33;;
18999;SDS011;9633;50.980;13.850;2023-12-20T08:56:31;2.40;;;1.30;;
18999;SDS011;9633;50.980;13.850;2023-12-20T08:58:04;2.70;;;1.27;;
18999;SDS011;9633;50.980;13.850;2023-12-20T08:59:38;1.83;;;1.20;;
18999;SDS011;9633;50.980;13.850;2023-12-20T09:01:11;1.80;;;0.90;;
18999;SDS011;9633;50.980;13.850;2023-12-20T09:02:44;3.00;;;1.10;;
18999;SDS011;9633;50.980;13.850;2023-12-20T09:04:17;3.93;;;1.33;;
18999;SDS011;9633;50.980;13.850;2023-12-20T09:05:49;3.90;;;2.40;;
18999;SDS011;9633;50.980;13.850;2023-12-20T09:07:24;3.27;;;1.27;;
18999;SDS011;9633;50.980;13.850;2023-12-20T09:08:58;2.83;;;1.10;;
18999;SDS011;9633;50.980;13.850;2023-12-20T09:10:31;1.97;;;1.07;;
18999;SDS011;9633;50.980;13.850;2023-12-20T09:12:04;3.47;;;1.33;;
18999;SDS011;9633;50.980;13.850;2023-12-20T09:13:38;3.00;;;1.20;;
18999;SDS011;9633;50.980;13.850;2023-12-20T09:15:10;2.40;;;1.10;;
18999;SDS011;9633;50.980;13.850;2023-12-20T09:16:43;1.83;;;1.10;;
18999;SDS011;9633;50.980;13.850;2023-12-20T09:18:15;2.90;;;1.20;;
18999;SDS011;9633;50.980;13.850;2023-12-20T09:19:49;2.20;;;1.00;;
18999;SDS011;9633;50.980;13.850;2023-12-20T09:21:21;2.47;;;1.00;;
18999;SDS011;9633;50.980;13.850;2023-12-20T09:22:56;3.97;;;1.10;;